createdAt,value
2019-05-22T00:00:09.763Z,11.13
2019-05-22T00:01:10.525Z,11.13
2019-05-22T00:02:10.951Z,11.18
2019-05-22T00:03:11.667Z,11.12
2019-05-22T00:04:12.722Z,11.12
2019-05-22T00:05:13.116Z,11.13
2019-05-22T00:06:13.817Z,11.15
2019-05-22T00:07:14.514Z,11.15
2019-05-22T00:08:14.908Z,11.07
2019-05-22T00:09:14.840Z,11.01
2019-05-22T00:10:15.538Z,11.02
2019-05-22T00:11:16.496Z,11.02
2019-05-22T00:12:16.905Z,10.98
2019-05-22T00:13:17.595Z,11.08
2019-05-22T00:14:18.031Z,11.08
2019-05-22T00:15:18.791Z,11.05
2019-05-22T00:16:19.553Z,11.01
2019-05-22T00:17:20.316Z,11.05
2019-05-22T00:18:20.467Z,11.08
2019-05-22T00:19:20.681Z,11.02
2019-05-22T00:20:21.080Z,11.04
2019-05-22T00:21:22.110Z,11.1
2019-05-22T00:22:22.246Z,11.02
2019-05-22T00:23:22.661Z,11.08
2019-05-22T00:24:23.069Z,11.1
2019-05-22T00:25:23.460Z,11.07
2019-05-22T00:26:23.577Z,11.02
2019-05-22T00:27:23.994Z,10.9
2019-05-22T00:28:24.390Z,11.07
2019-05-22T00:29:25.334Z,10.87
2019-05-22T00:30:25.779Z,10.9
2019-05-22T00:31:26.474Z,10.95
2019-05-22T00:32:26.588Z,11.01
2019-05-22T00:33:27.261Z,11.02
2019-05-22T00:34:27.421Z,10.98
2019-05-22T00:35:27.844Z,10.97
2019-05-22T00:36:28.567Z,10.98
2019-05-22T00:37:29.292Z,11.02
2019-05-22T00:38:30.272Z,11
2019-05-22T00:39:30.487Z,10.98
2019-05-22T00:40:32.148Z,10.97
2019-05-22T00:41:31.838Z,10.97
2019-05-22T00:42:32.528Z,10.9
2019-05-22T00:43:32.935Z,10.95
2019-05-22T00:44:33.640Z,11
2019-05-22T00:45:34.056Z,10.95
2019-05-22T00:46:34.170Z,10.92
2019-05-22T00:47:34.563Z,10.86
2019-05-22T00:48:34.969Z,10.82
2019-05-22T00:49:35.491Z,10.84
2019-05-22T00:50:36.162Z,10.84
2019-05-22T00:51:37.184Z,10.92
2019-05-22T00:52:37.166Z,10.83
2019-05-22T00:53:37.589Z,10.89
2019-05-22T00:54:38.007Z,10.94
2019-05-22T00:55:39.010Z,10.92
2019-05-22T00:56:39.423Z,10.98
2019-05-22T00:57:39.835Z,10.86
2019-05-22T00:58:40.538Z,10.86
2019-05-22T00:59:41.349Z,10.89
2019-05-22T01:00:42.148Z,10.86
2019-05-22T01:01:42.870Z,10.84
2019-05-22T01:02:43.883Z,10.87
2019-05-22T01:03:44.292Z,10.8
2019-05-22T01:04:44.702Z,10.79
2019-05-22T01:05:44.833Z,10.8
2019-05-22T01:06:45.833Z,10.84
2019-05-22T01:07:46.522Z,10.72
2019-05-22T01:08:47.202Z,10.8
2019-05-22T01:09:48.414Z,10.82
2019-05-22T01:10:48.870Z,10.82
2019-05-22T01:11:49.277Z,10.89
2019-05-22T01:12:49.968Z,10.86
2019-05-22T01:13:50.655Z,10.84
2019-05-22T01:14:51.345Z,10.84
2019-05-22T01:15:51.809Z,10.97
2019-05-22T01:16:52.511Z,10.97
2019-05-22T01:17:53.795Z,10.77
2019-05-22T01:18:54.239Z,10.97
2019-05-22T01:19:54.887Z,10.83
2019-05-22T01:20:54.999Z,10.84
2019-05-22T01:21:55.467Z,10.86
2019-05-22T01:22:56.181Z,10.84
2019-05-22T01:23:56.659Z,10.86
2019-05-22T01:24:57.649Z,10.97
2019-05-22T01:25:57.777Z,10.84
2019-05-22T01:26:58.180Z,10.98
2019-05-22T01:27:58.575Z,10.97
2019-05-22T01:28:58.988Z,10.84
2019-05-22T01:29:59.280Z,10.9
2019-05-22T01:30:59.975Z,10.97
2019-05-22T01:32:00.359Z,10.92
2019-05-22T01:33:00.751Z,10.86
2019-05-22T01:34:01.432Z,10.98
2019-05-22T01:35:01.853Z,10.9
2019-05-22T01:36:02.261Z,10.84
2019-05-22T01:37:02.970Z,10.89
2019-05-22T01:38:03.672Z,10.95
2019-05-22T01:39:04.252Z,10.9
2019-05-22T01:40:04.810Z,10.92
2019-05-22T01:41:05.512Z,11
2019-05-22T01:42:06.522Z,11.05
2019-05-22T01:43:06.934Z,11.07
2019-05-22T01:44:07.327Z,10.98
2019-05-22T01:45:12.818Z,11.05
2019-05-22T01:46:07.954Z,11
2019-05-22T01:47:08.644Z,11.08
2019-05-22T01:48:09.449Z,11.02
2019-05-22T01:49:09.561Z,11.02
2019-05-22T01:50:11.080Z,11.01
2019-05-22T01:51:11.103Z,11.05
2019-05-22T01:52:11.578Z,11.01
2019-05-22T01:53:12.284Z,11.1
2019-05-22T01:54:12.988Z,11.04
2019-05-22T01:55:13.691Z,11.04
2019-05-22T01:56:14.718Z,11.02
2019-05-22T01:57:14.704Z,11.07
2019-05-22T01:58:15.119Z,11.02
2019-05-22T01:59:15.534Z,11.04
2019-05-22T02:00:16.062Z,11.04
2019-05-22T02:01:17.073Z,10.94
2019-05-22T02:02:17.477Z,11.01
2019-05-22T02:03:17.895Z,10.92
2019-05-22T02:04:20.337Z,10.87
2019-05-22T02:05:18.744Z,10.95
2019-05-22T02:06:19.414Z,10.9
2019-05-22T02:07:20.140Z,10.86
2019-05-22T02:08:20.546Z,10.92
2019-05-22T02:09:20.684Z,10.95
2019-05-22T02:10:21.098Z,10.89
2019-05-22T02:11:21.216Z,10.89
2019-05-22T02:12:21.919Z,10.87
2019-05-22T02:13:22.311Z,10.86
2019-05-22T02:14:23.015Z,10.8
2019-05-22T02:15:22.704Z,10.83
2019-05-22T02:16:22.817Z,10.82
2019-05-22T02:17:23.819Z,10.75
2019-05-22T02:18:23.926Z,10.77
2019-05-22T02:19:24.344Z,10.77
2019-05-22T02:20:24.692Z,10.77
2019-05-22T02:21:25.159Z,10.69
2019-05-22T02:22:25.844Z,10.72
2019-05-22T02:23:26.839Z,10.77
2019-05-22T02:24:26.954Z,10.76
2019-05-22T02:25:27.660Z,10.79
2019-05-22T02:26:28.365Z,10.75
2019-05-22T02:27:29.045Z,10.72
2019-05-22T02:28:30.330Z,10.75
2019-05-22T02:29:30.828Z,10.75
2019-05-22T02:30:32.083Z,10.68
2019-05-22T02:31:32.075Z,10.77
2019-05-22T02:32:32.798Z,10.77
2019-05-22T02:33:33.475Z,10.76
2019-05-22T02:34:34.200Z,10.77
2019-05-22T02:35:34.902Z,10.76
2019-05-22T02:36:34.905Z,10.75
2019-05-22T02:37:35.309Z,10.79
2019-05-22T02:38:36.031Z,10.72
2019-05-22T02:39:36.654Z,10.8
2019-05-22T02:40:36.749Z,10.79
2019-05-22T02:41:37.502Z,10.76
2019-05-22T02:42:37.498Z,10.83
2019-05-22T02:43:38.185Z,10.79
2019-05-22T02:44:38.905Z,10.86
2019-05-22T02:45:39.566Z,10.84
2019-05-22T02:46:39.991Z,10.84
2019-05-22T02:47:40.689Z,10.9
2019-05-22T02:48:42.752Z,10.83
2019-05-22T02:49:41.470Z,10.9
2019-05-22T02:50:42.298Z,10.94
2019-05-22T02:51:42.427Z,10.86
2019-05-22T02:52:43.138Z,10.86
2019-05-22T02:53:43.531Z,10.9
2019-05-22T02:54:43.951Z,10.97
2019-05-22T02:55:45.520Z,10.89
2019-05-22T02:56:45.934Z,10.86
2019-05-22T02:57:46.923Z,10.87
2019-05-22T02:58:47.619Z,10.86
2019-05-22T02:59:48.630Z,10.87
2019-05-22T03:00:49.418Z,10.84
2019-05-22T03:01:49.818Z,10.98
2019-05-22T03:02:50.214Z,10.92
2019-05-22T03:03:50.632Z,10.89
2019-05-22T03:04:51.625Z,10.94
2019-05-22T03:05:52.880Z,10.98
2019-05-22T03:06:53.149Z,10.9
2019-05-22T03:07:53.839Z,11.01
2019-05-22T03:08:54.254Z,10.97
2019-05-22T03:09:54.681Z,11
2019-05-22T03:10:55.221Z,10.89
2019-05-22T03:11:56.211Z,11.01
2019-05-22T03:12:57.204Z,10.95
2019-05-22T03:13:57.480Z,11
2019-05-22T03:14:57.477Z,11.01
2019-05-22T03:15:58.007Z,10.95
2019-05-22T03:16:58.974Z,10.97
2019-05-22T03:17:59.439Z,10.95
2019-05-22T03:19:14.531Z,10.92
2019-05-22T03:20:00.274Z,10.92
2019-05-22T03:21:01.208Z,10.95
2019-05-22T03:22:01.903Z,10.89
2019-05-22T03:23:02.604Z,10.95
2019-05-22T03:24:02.762Z,11.02
2019-05-22T03:25:03.743Z,10.97
2019-05-22T03:26:04.007Z,11.01
2019-05-22T03:27:04.721Z,10.95
2019-05-22T03:28:05.422Z,11
2019-05-22T03:29:05.853Z,11.05
2019-05-22T03:30:06.692Z,11.05
2019-05-22T03:31:07.212Z,11.04
2019-05-22T03:32:07.674Z,11.01
2019-05-22T03:33:09.057Z,11.07
2019-05-22T03:34:09.693Z,11.05
2019-05-22T03:35:09.735Z,11.08
2019-05-22T03:36:10.213Z,11.12
2019-05-22T03:37:10.051Z,11.02
2019-05-22T03:38:11.320Z,10.94
2019-05-22T03:39:11.773Z,10.95
2019-05-22T03:40:12.182Z,10.97
2019-05-22T03:41:13.341Z,10.98
2019-05-22T03:42:13.075Z,11.02
2019-05-22T03:43:13.473Z,11.04
2019-05-22T03:44:14.212Z,11.05
2019-05-22T03:45:14.930Z,10.97
2019-05-22T03:46:15.377Z,11
2019-05-22T03:47:16.351Z,11.04
2019-05-22T03:48:17.059Z,11.01
2019-05-22T03:49:34.336Z,11
2019-05-22T03:50:18.421Z,11.12
2019-05-22T03:51:19.235Z,11.04
2019-05-22T03:52:19.679Z,11.05
2019-05-22T03:53:20.681Z,11.15
2019-05-22T03:54:21.389Z,11.12
2019-05-22T03:55:22.097Z,11.07
2019-05-22T03:56:23.115Z,11.1
2019-05-22T03:57:23.827Z,11.15
2019-05-22T03:58:24.240Z,11.16
2019-05-22T03:59:24.947Z,11.12
2019-05-22T04:00:26.303Z,11.18
2019-05-22T04:01:26.602Z,11.15
2019-05-22T04:02:27.887Z,11.13
2019-05-22T04:03:27.864Z,11.07
2019-05-22T04:04:28.299Z,11.02
2019-05-22T04:05:28.592Z,11.07
2019-05-22T04:06:29.306Z,11.04
2019-05-22T04:07:30.303Z,11.01
2019-05-22T04:08:30.574Z,11
2019-05-22T04:09:31.143Z,11.05
2019-05-22T04:10:31.285Z,11.04
2019-05-22T04:11:32.454Z,11.04
2019-05-22T04:12:32.598Z,11.04
2019-05-22T04:13:33.583Z,11.07
2019-05-22T04:14:34.569Z,10.94
2019-05-22T04:15:35.573Z,11.08
2019-05-22T04:16:35.864Z,11.08
2019-05-22T04:17:35.568Z,11.05
2019-05-22T04:18:36.647Z,10.97
2019-05-22T04:19:53.979Z,11.05
2019-05-22T04:20:37.393Z,11
2019-05-22T04:21:38.073Z,10.98
2019-05-22T04:22:39.062Z,10.97
2019-05-22T04:23:38.766Z,11.02
2019-05-22T04:24:39.477Z,11.02
2019-05-22T04:25:40.491Z,11.02
2019-05-22T04:26:40.535Z,11.07
2019-05-22T04:27:41.270Z,10.97
2019-05-22T04:28:41.979Z,10.95
2019-05-22T04:29:41.816Z,10.94
2019-05-22T04:30:41.942Z,10.98
2019-05-22T04:31:42.464Z,11.01
2019-05-22T04:32:43.192Z,10.97
2019-05-22T04:33:43.885Z,10.98
2019-05-22T04:34:44.325Z,11.01
2019-05-22T04:35:45.311Z,11.05
2019-05-22T04:36:45.729Z,11.05
2019-05-22T04:37:46.246Z,11.04
2019-05-22T04:38:47.243Z,11
2019-05-22T04:39:47.650Z,10.97
2019-05-22T04:40:48.707Z,11.01
2019-05-22T04:41:49.386Z,11.05
2019-05-22T04:42:49.508Z,11.05
2019-05-22T04:43:50.204Z,11.05
2019-05-22T04:44:50.623Z,11.02
2019-05-22T04:45:51.971Z,11.01
2019-05-22T04:46:51.948Z,11.07
2019-05-22T04:47:52.637Z,11.12
2019-05-22T04:48:53.948Z,11.07
2019-05-22T04:50:12.210Z,11.08
2019-05-22T04:50:55.179Z,11.01
2019-05-22T04:51:55.173Z,11.12
2019-05-22T04:52:55.861Z,11.01
2019-05-22T04:53:56.593Z,11.1
2019-05-22T04:54:58.811Z,11
2019-05-22T04:55:59.081Z,11.12
2019-05-22T04:56:59.531Z,11.12
2019-05-22T04:57:59.522Z,11.08
2019-05-22T04:59:00.520Z,11.01
2019-05-22T05:00:01.235Z,11.04
2019-05-22T05:01:02.376Z,11.08
2019-05-22T05:02:02.587Z,11.01
2019-05-22T05:03:03.291Z,11.01
2019-05-22T05:04:03.730Z,11.07
2019-05-22T05:05:04.438Z,11.04
2019-05-22T05:06:07.539Z,11.02
2019-05-22T05:07:05.522Z,11.08
2019-05-22T05:08:05.643Z,11.07
2019-05-22T05:09:06.054Z,11.05
2019-05-22T05:10:06.473Z,11
2019-05-22T05:11:07.469Z,11.1
2019-05-22T05:12:07.778Z,11.05
2019-05-22T05:13:08.179Z,11.12
2019-05-22T05:14:08.889Z,11.07
2019-05-22T05:15:09.301Z,11.16
2019-05-22T05:16:09.723Z,11.08
2019-05-22T05:17:10.398Z,11.15
2019-05-22T05:18:10.517Z,11.07
2019-05-22T05:19:11.533Z,11.12
2019-05-22T05:20:27.254Z,11.15
2019-05-22T05:21:12.689Z,11.15
2019-05-22T05:22:13.618Z,11.15
2019-05-22T05:23:13.731Z,11.13
2019-05-22T05:24:14.424Z,11.16
2019-05-22T05:25:14.832Z,11.16
2019-05-22T05:26:15.498Z,11.13
2019-05-22T05:27:15.623Z,11.16
2019-05-22T05:28:16.021Z,11.19
2019-05-22T05:29:16.752Z,11.18
2019-05-22T05:30:17.162Z,11.23
2019-05-22T05:31:17.875Z,11.2
2019-05-22T05:32:18.379Z,11.16
2019-05-22T05:33:19.151Z,11.19
2019-05-22T05:34:19.575Z,11.19
2019-05-22T05:35:20.304Z,11.22
2019-05-22T05:36:20.707Z,11.27
2019-05-22T05:37:21.138Z,11.22
2019-05-22T05:38:21.557Z,11.23
2019-05-22T05:39:22.253Z,11.35
2019-05-22T05:40:22.674Z,11.27
2019-05-22T05:41:23.660Z,11.31
2019-05-22T05:42:24.163Z,11.22
2019-05-22T05:43:24.581Z,11.19
2019-05-22T05:44:24.702Z,11.35
2019-05-22T05:45:25.395Z,11.33
2019-05-22T05:46:25.849Z,11.33
2019-05-22T05:47:26.265Z,11.33
2019-05-22T05:48:27.254Z,11.4
2019-05-22T05:49:26.963Z,11.4
2019-05-22T05:50:44.082Z,11.4
2019-05-22T05:51:27.787Z,11.37
2019-05-22T05:52:29.006Z,11.26
2019-05-22T05:53:29.712Z,11.4
2019-05-22T05:54:30.707Z,11.4
2019-05-22T05:55:30.154Z,11.37
2019-05-22T05:56:30.565Z,11.4
2019-05-22T05:57:30.741Z,11.41
2019-05-22T05:58:32.681Z,11.45
2019-05-22T05:59:32.178Z,11.44
2019-05-22T06:00:32.161Z,11.41
2019-05-22T06:01:32.919Z,11.34
2019-05-22T06:02:34.128Z,11.26
2019-05-22T06:03:34.224Z,11.4
2019-05-22T06:04:40.503Z,11.44
2019-05-22T06:05:34.905Z,11.41
2019-05-22T06:06:35.619Z,11.45
2019-05-22T06:07:36.400Z,11.48
2019-05-22T06:08:38.717Z,11.44
2019-05-22T06:09:37.409Z,11.45
2019-05-22T06:10:37.837Z,11.45
2019-05-22T06:11:37.954Z,11.44
2019-05-22T06:12:39.532Z,11.48
2019-05-22T06:13:39.696Z,11.45
2019-05-22T06:14:40.584Z,11.44
2019-05-22T06:15:52.525Z,11.44
2019-05-22T06:16:41.914Z,11.51
2019-05-22T06:17:43.216Z,11.48
2019-05-22T06:18:43.207Z,11.52
2019-05-22T06:19:43.177Z,11.58
2019-05-22T06:20:44.166Z,11.53
2019-05-22T06:21:44.984Z,11.43
2019-05-22T06:22:46.219Z,11.52
2019-05-22T06:23:47.004Z,11.48
2019-05-22T06:24:47.411Z,11.56
2019-05-22T06:25:47.824Z,11.51
2019-05-22T06:26:48.222Z,11.51
2019-05-22T06:27:49.229Z,11.6
2019-05-22T06:28:49.949Z,11.56
2019-05-22T06:29:50.076Z,11.55
2019-05-22T06:30:50.193Z,11.56
2019-05-22T06:31:50.629Z,11.52
2019-05-22T06:32:51.529Z,11.6
2019-05-22T06:33:51.968Z,11.58
2019-05-22T06:34:52.689Z,11.58
2019-05-22T06:35:53.181Z,11.55
2019-05-22T06:36:54.175Z,11.59
2019-05-22T06:37:54.872Z,11.58
2019-05-22T06:38:55.820Z,11.59
2019-05-22T06:39:55.996Z,11.55
2019-05-22T06:40:56.237Z,11.6
2019-05-22T06:41:57.460Z,11.55
2019-05-22T06:42:57.711Z,11.56
2019-05-22T06:43:58.408Z,11.58
2019-05-22T06:44:58.389Z,11.53
2019-05-22T06:46:01.232Z,11.55
2019-05-22T06:46:59.418Z,11.6
2019-05-22T06:47:59.760Z,11.6
2019-05-22T06:49:00.166Z,11.59
2019-05-22T06:50:00.585Z,11.56
2019-05-22T06:51:01.301Z,11.56
2019-05-22T06:52:01.240Z,11.58
2019-05-22T06:53:15.607Z,11.6
2019-05-22T06:54:01.800Z,11.59
2019-05-22T06:55:02.752Z,11.65
2019-05-22T06:56:02.748Z,11.63
2019-05-22T06:57:03.773Z,11.63
2019-05-22T06:58:04.544Z,11.65
2019-05-22T06:59:05.039Z,11.62
2019-05-22T07:00:19.297Z,11.65
2019-05-22T07:01:06.008Z,11.59
2019-05-22T07:02:08.023Z,11.63
2019-05-22T07:03:07.997Z,11.65
2019-05-22T07:04:08.703Z,11.63
2019-05-22T07:05:09.726Z,11.56
2019-05-22T07:06:10.090Z,11.63
2019-05-22T07:07:12.694Z,11.63
2019-05-22T07:08:13.623Z,11.65
2019-05-22T07:09:12.174Z,11.67
2019-05-22T07:10:12.911Z,11.59
2019-05-22T07:11:13.954Z,11.63
2019-05-22T07:12:14.659Z,11.6
2019-05-22T07:13:15.200Z,11.59
2019-05-22T07:14:15.935Z,11.58
2019-05-22T07:15:16.634Z,11.7
2019-05-22T07:16:17.389Z,11.58
2019-05-22T07:17:17.641Z,11.68
2019-05-22T07:18:19.070Z,11.6
2019-05-22T07:19:18.186Z,11.63
2019-05-22T07:20:19.358Z,11.56
2019-05-22T07:21:26.669Z,11.62
2019-05-22T07:22:19.462Z,11.56
2019-05-22T07:23:19.945Z,11.59
2019-05-22T07:24:20.968Z,11.59
2019-05-22T07:25:21.397Z,11.65
2019-05-22T07:26:21.848Z,11.56
2019-05-22T07:27:22.645Z,11.6
2019-05-22T07:28:23.395Z,11.63
2019-05-22T07:29:24.093Z,11.67
2019-05-22T07:30:24.881Z,11.7
2019-05-22T07:31:27.219Z,11.7
2019-05-22T07:32:30.143Z,11.74
2019-05-22T07:33:26.649Z,11.71
2019-05-22T07:34:27.237Z,11.77
2019-05-22T07:36:07.511Z,11.81
2019-05-22T07:36:28.684Z,11.85
2019-05-22T07:37:30.042Z,11.85
2019-05-22T07:38:30.932Z,11.89
2019-05-22T07:39:30.385Z,12.03
2019-05-22T07:40:31.230Z,11.95
2019-05-22T07:41:31.397Z,11.96
2019-05-22T07:42:31.795Z,12
2019-05-22T07:43:33.066Z,12.03
2019-05-22T07:44:33.389Z,12.11
2019-05-22T07:45:33.795Z,12.11
2019-05-22T07:46:36.747Z,12.18
2019-05-22T07:47:36.111Z,12.1
2019-05-22T07:48:36.431Z,12.03
2019-05-22T07:49:37.412Z,12.15
2019-05-22T07:50:37.406Z,12.18
2019-05-22T07:51:59.163Z,12.17
2019-05-22T07:52:39.087Z,12.17
2019-05-22T07:53:39.336Z,12.17
2019-05-22T07:54:39.817Z,12.17
2019-05-22T07:55:39.986Z,12.21
2019-05-22T07:56:40.727Z,12.3
2019-05-22T07:57:41.126Z,12.18
2019-05-22T07:58:41.834Z,12.26
2019-05-22T07:59:41.550Z,12.33
2019-05-22T08:00:43.772Z,12.37
2019-05-22T08:01:42.835Z,12.36
2019-05-22T08:02:42.460Z,12.4
2019-05-22T08:03:43.297Z,12.36
2019-05-22T08:04:43.708Z,12.48
2019-05-22T08:05:44.133Z,12.33
2019-05-22T08:06:44.344Z,12.37
2019-05-22T08:07:45.720Z,12.4
2019-05-22T08:08:45.287Z,12.37
2019-05-22T08:09:46.377Z,12.39
2019-05-22T08:10:46.362Z,12.36
2019-05-22T08:11:47.067Z,12.33
2019-05-22T08:12:47.843Z,12.37
2019-05-22T08:13:48.713Z,12.4
2019-05-22T08:14:49.894Z,12.33
2019-05-22T08:15:53.847Z,12.39
2019-05-22T08:16:49.989Z,12.45
2019-05-22T08:17:50.463Z,12.45
2019-05-22T08:18:51.450Z,12.48
2019-05-22T08:19:51.465Z,12.54
2019-05-22T08:20:52.492Z,12.5
2019-05-22T08:22:07.969Z,12.48
2019-05-22T08:22:53.137Z,12.53
2019-05-22T08:23:53.411Z,12.4
2019-05-22T08:24:54.053Z,12.43
2019-05-22T08:25:54.760Z,12.39
2019-05-22T08:27:00.869Z,12.39
2019-05-22T08:27:55.585Z,12.37
2019-05-22T08:28:56.550Z,12.45
2019-05-22T08:29:57.777Z,12.4
2019-05-22T08:30:57.548Z,12.35
2019-05-22T08:31:58.070Z,12.33
2019-05-22T08:32:59.118Z,12.44
2019-05-22T08:33:59.898Z,12.4
2019-05-22T08:34:59.754Z,12.43
2019-05-22T08:36:00.707Z,12.37
2019-05-22T08:37:01.561Z,12.47
2019-05-22T08:38:02.464Z,12.51
2019-05-22T08:39:03.441Z,12.54
2019-05-22T08:40:03.658Z,12.47
2019-05-22T08:41:03.075Z,12.54
2019-05-22T08:42:03.951Z,12.53
2019-05-22T08:43:04.116Z,12.55
2019-05-22T08:44:24.028Z,12.57
2019-05-22T08:45:24.233Z,12.61
2019-05-22T08:46:24.460Z,12.66
2019-05-22T08:47:25.164Z,12.66
2019-05-22T08:48:25.948Z,12.63
2019-05-22T08:49:26.718Z,12.66
2019-05-22T08:50:26.848Z,12.76
2019-05-22T08:51:27.626Z,12.78
2019-05-22T08:52:29.426Z,12.76
2019-05-22T08:53:29.197Z,12.81
2019-05-22T08:54:29.927Z,12.63
2019-05-22T08:55:30.919Z,12.68
2019-05-22T08:56:31.849Z,12.63
2019-05-22T08:57:32.834Z,12.63
2019-05-22T08:58:33.256Z,12.63
2019-05-22T08:59:33.674Z,12.62
2019-05-22T09:00:34.097Z,12.72
2019-05-22T09:01:34.629Z,12.69
2019-05-22T09:02:35.324Z,12.84
2019-05-22T09:03:35.743Z,12.8
2019-05-22T09:04:36.564Z,12.8
2019-05-22T09:05:36.583Z,12.75
2019-05-22T09:06:37.385Z,12.61
2019-05-22T09:07:38.822Z,12.83
2019-05-22T09:08:38.572Z,12.83
2019-05-22T09:09:39.662Z,12.84
2019-05-22T09:10:39.803Z,12.83
2019-05-22T09:11:42.029Z,12.9
2019-05-22T09:12:43.170Z,12.9
2019-05-22T09:13:43.061Z,12.9
2019-05-22T09:14:43.205Z,12.93
2019-05-22T09:15:45.066Z,12.93
2019-05-22T09:16:43.776Z,12.95
2019-05-22T09:17:45.816Z,13.02
2019-05-22T09:18:45.585Z,13.06
2019-05-22T09:19:46.634Z,13.09
2019-05-22T09:20:55.167Z,13.12
2019-05-22T09:21:48.029Z,13.11
2019-05-22T09:22:47.727Z,13.12
2019-05-22T09:23:48.831Z,13.17
2019-05-22T09:24:48.977Z,13.11
2019-05-22T09:25:51.004Z,13.08
2019-05-22T09:26:49.885Z,13.17
2019-05-22T09:27:50.496Z,13.09
2019-05-22T09:28:50.506Z,13.06
2019-05-22T09:29:50.677Z,13.05
2019-05-22T09:30:51.402Z,13.06
2019-05-22T09:31:52.104Z,13.09
2019-05-22T09:32:53.448Z,13.06
2019-05-22T09:33:52.457Z,13.09
2019-05-22T09:34:53.210Z,13.13
2019-05-22T09:35:54.127Z,13.2
2019-05-22T09:36:54.651Z,13.16
2019-05-22T09:37:55.574Z,13.08
2019-05-22T09:38:58.671Z,13.16
2019-05-22T09:39:57.885Z,13.13
2019-05-22T09:40:57.602Z,13.08
2019-05-22T09:41:57.866Z,13.09
2019-05-22T09:42:59.221Z,13.17
2019-05-22T09:44:00.689Z,13.12
2019-05-22T09:44:59.917Z,13.17
2019-05-22T09:46:00.399Z,13.19
2019-05-22T09:47:01.786Z,13.13
2019-05-22T09:48:01.758Z,13.16
2019-05-22T09:49:04.369Z,13.21
2019-05-22T09:50:04.910Z,13.12
2019-05-22T09:51:04.600Z,13.11
2019-05-22T09:52:04.168Z,13.19
2019-05-22T09:53:05.105Z,13.12
2019-05-22T09:54:05.761Z,13.16
2019-05-22T09:55:05.245Z,13.17
2019-05-22T09:56:08.017Z,13.23
2019-05-22T09:57:06.759Z,13.2
2019-05-22T09:58:07.177Z,13.2
2019-05-22T09:59:07.905Z,13.23
2019-05-22T10:00:08.644Z,13.19
2019-05-22T10:01:12.437Z,13.26
2019-05-22T10:02:10.434Z,13.12
2019-05-22T10:03:10.828Z,13.05
2019-05-22T10:04:12.779Z,13.27
2019-05-22T10:05:12.477Z,13.21
2019-05-22T10:06:13.417Z,13.24
2019-05-22T10:07:14.138Z,13.28
2019-05-22T10:08:15.995Z,13.24
2019-05-22T10:09:14.469Z,13.21
2019-05-22T10:10:15.174Z,13.36
2019-05-22T10:11:15.890Z,13.24
2019-05-22T10:12:16.652Z,13.21
2019-05-22T10:13:17.139Z,13.23
2019-05-22T10:14:17.460Z,13.21
2019-05-22T10:15:17.522Z,13.27
2019-05-22T10:16:18.622Z,13.21
2019-05-22T10:17:20.436Z,13.4
2019-05-22T10:18:20.205Z,13.33
2019-05-22T10:19:20.921Z,13.4
2019-05-22T10:20:21.705Z,13.42
2019-05-22T10:21:22.194Z,13.55
2019-05-22T10:22:22.598Z,13.55
2019-05-22T10:23:23.010Z,13.64
2019-05-22T10:24:24.000Z,13.64
2019-05-22T10:25:23.822Z,13.73
2019-05-22T10:26:24.277Z,13.71
2019-05-22T10:27:25.105Z,13.85
2019-05-22T10:28:26.423Z,13.94
2019-05-22T10:29:27.576Z,13.95
2019-05-22T10:30:29.695Z,14.03
2019-05-22T10:31:27.738Z,14.12
2019-05-22T10:32:32.741Z,14.22
2019-05-22T10:33:29.608Z,14.19
2019-05-22T10:34:30.378Z,14.3
2019-05-22T10:35:30.845Z,14.28
2019-05-22T10:36:32.183Z,14.33
2019-05-22T10:37:31.958Z,14.4
2019-05-22T10:38:32.626Z,14.34
2019-05-22T10:39:34.387Z,14.3
2019-05-22T10:40:35.164Z,14.33
2019-05-22T10:41:35.069Z,14.3
2019-05-22T10:42:36.032Z,14.31
2019-05-22T10:43:36.176Z,14.28
2019-05-22T10:44:36.707Z,14.37
2019-05-22T10:45:36.792Z,14.38
2019-05-22T10:46:37.519Z,14.36
2019-05-22T10:47:38.173Z,14.31
2019-05-22T10:48:41.185Z,14.31
2019-05-22T10:49:38.987Z,14.3
2019-05-22T10:50:38.451Z,14.33
2019-05-22T10:51:38.921Z,14.38
2019-05-22T10:52:39.990Z,14.4
2019-05-22T10:53:40.031Z,14.38
2019-05-22T10:54:40.157Z,14.48
2019-05-22T10:55:41.211Z,14.53
2019-05-22T10:56:42.362Z,14.51
2019-05-22T10:57:46.937Z,14.56
2019-05-22T10:58:43.685Z,14.66
2019-05-22T10:59:44.553Z,14.63
2019-05-22T11:00:44.305Z,14.56
2019-05-22T11:01:44.433Z,14.56
2019-05-22T11:02:45.604Z,14.61
2019-05-22T11:03:46.364Z,14.61
2019-05-22T11:04:48.717Z,14.53
2019-05-22T11:06:07.721Z,14.62
2019-05-22T11:06:50.123Z,14.58
2019-05-22T11:07:50.071Z,14.61
2019-05-22T11:08:50.303Z,14.66
2019-05-22T11:09:51.141Z,14.87
2019-05-22T11:10:52.252Z,14.85
2019-05-22T11:11:52.706Z,14.79
2019-05-22T11:12:53.732Z,14.85
2019-05-22T11:14:10.184Z,14.96
2019-05-22T11:14:55.265Z,14.9
2019-05-22T11:15:56.349Z,14.79
2019-05-22T11:16:56.087Z,14.81
2019-05-22T11:17:56.960Z,14.87
2019-05-22T11:18:57.090Z,14.82
2019-05-22T11:19:57.213Z,14.86
2019-05-22T11:20:57.641Z,14.92
2019-05-22T11:21:58.077Z,14.92
2019-05-22T11:22:58.203Z,14.89
2019-05-22T11:23:59.202Z,14.99
2019-05-22T11:24:59.625Z,14.93
2019-05-22T11:25:59.903Z,14.9
2019-05-22T11:27:00.902Z,14.79
2019-05-22T11:28:01.610Z,14.94
2019-05-22T11:29:02.414Z,14.87
2019-05-22T11:30:02.588Z,14.87
2019-05-22T11:31:03.063Z,14.99
2019-05-22T11:32:03.869Z,15
2019-05-22T11:33:05.168Z,14.93
2019-05-22T11:34:05.726Z,14.94
2019-05-22T11:35:06.444Z,15.02
2019-05-22T11:36:06.717Z,14.96
2019-05-22T11:37:07.468Z,15.02
2019-05-22T11:38:07.899Z,15
2019-05-22T11:39:08.831Z,14.93
2019-05-22T11:40:09.715Z,14.9
2019-05-22T11:41:11.992Z,14.89
2019-05-22T11:42:11.185Z,14.87
2019-05-22T11:43:12.119Z,14.85
2019-05-22T11:44:12.624Z,14.86
2019-05-22T11:45:13.961Z,14.77
2019-05-22T11:46:13.947Z,14.86
2019-05-22T11:47:15.000Z,14.86
2019-05-22T11:48:15.963Z,14.77
2019-05-22T11:49:16.314Z,14.73
2019-05-22T11:50:16.962Z,14.77
2019-05-22T11:51:18.361Z,14.81
2019-05-22T11:52:19.200Z,14.77
2019-05-22T11:53:20.297Z,14.78
2019-05-22T11:54:19.483Z,14.77
2019-05-22T11:55:19.912Z,14.86
2019-05-22T11:56:26.682Z,14.73
2019-05-22T11:57:27.098Z,14.85
2019-05-22T11:58:28.079Z,14.74
2019-05-22T11:59:28.866Z,14.78
2019-05-22T12:00:29.325Z,14.94
2019-05-22T12:01:30.068Z,14.87
2019-05-22T12:02:30.606Z,14.89
2019-05-22T12:03:31.295Z,14.9
2019-05-22T12:04:48.956Z,14.9
2019-05-22T12:05:32.517Z,15.04
2019-05-22T12:06:33.350Z,14.99
2019-05-22T12:07:33.677Z,15.08
2019-05-22T12:08:34.655Z,15.12
2019-05-22T12:09:34.779Z,15
2019-05-22T12:10:35.914Z,15.07
2019-05-22T12:11:36.052Z,15
2019-05-22T12:12:40.944Z,15.04
2019-05-22T12:13:37.475Z,14.89
2019-05-22T12:14:38.583Z,14.97
2019-05-22T12:15:39.493Z,14.96
2019-05-22T12:16:39.429Z,14.87
2019-05-22T12:17:44.170Z,14.87
2019-05-22T12:18:40.623Z,14.86
2019-05-22T12:19:41.325Z,14.87
2019-05-22T12:20:41.851Z,14.78
2019-05-22T12:21:41.872Z,14.78
2019-05-22T12:22:42.682Z,14.79
2019-05-22T12:23:42.451Z,14.77
2019-05-22T12:24:43.596Z,14.74
2019-05-22T12:25:42.735Z,14.71
2019-05-22T12:26:44.053Z,14.66
2019-05-22T12:27:44.458Z,14.66
2019-05-22T12:28:45.488Z,14.59
2019-05-22T12:29:45.970Z,14.56
2019-05-22T12:30:46.733Z,14.56
2019-05-22T12:31:46.875Z,14.58
2019-05-22T12:32:47.699Z,14.63
2019-05-22T12:33:47.714Z,14.71
2019-05-22T12:34:50.244Z,14.7
2019-05-22T12:35:49.071Z,14.68
2019-05-22T12:36:52.046Z,14.62
2019-05-22T12:37:49.857Z,14.77
2019-05-22T12:38:50.692Z,14.7
2019-05-22T12:39:51.506Z,14.73
2019-05-22T12:40:53.274Z,14.78
2019-05-22T12:41:53.069Z,14.79
2019-05-22T12:42:54.099Z,14.79
2019-05-22T12:43:54.621Z,14.87
2019-05-22T12:44:55.665Z,14.89
2019-05-22T12:45:56.449Z,14.99
2019-05-22T12:46:57.006Z,14.87
2019-05-22T12:47:58.274Z,14.97
2019-05-22T12:49:00.190Z,14.96
2019-05-22T12:49:59.318Z,15.08
2019-05-22T12:51:00.219Z,15.05
2019-05-22T12:52:00.535Z,15.07
2019-05-22T12:53:01.062Z,15.1
2019-05-22T12:54:01.279Z,15.11
2019-05-22T12:55:02.550Z,15.14
2019-05-22T12:56:02.674Z,15.14
2019-05-22T12:57:03.051Z,15.11
2019-05-22T12:58:03.824Z,15.11
2019-05-22T12:59:04.678Z,15.14
2019-05-22T13:00:08.539Z,15.19
2019-05-22T13:01:06.537Z,15.18
2019-05-22T13:02:06.559Z,15.19
2019-05-22T13:03:07.571Z,15.23
2019-05-22T13:04:08.687Z,15.25